Enisejsk, Russia
Current Conditions -  °F | °C
As of 10:00 AM on Tuesday 27 Jan 2015 (Local Time) from UNKL Reporting Station
Light Fog Light Fog  
Wind Chill: -20°   Ceiling: 17000
Heat Index: -20°   Visibility: 5mi
Dew Point: -27°   Wind: 0mph
Humidity: 69%   Direction: NA
Pressure: 30.48"   Gusts: NA
Location:  58.45°N, 92.15°E
Report Text: UNKL 270300Z 00000MPS 8000 BCFG BKN170 M29/M33 Q1032 TEMPO0300 FZFG RMK QFE748 29////65
Loading
Personal Weather Stations






























Interactive Weather Map New forecast layout! Learn more

10-Day Weather Forecast

Advertisements
Track Severe Weather on mobile